Bismarck, North Dakota
Current Conditions -  °F | °C
As of 8:52 PM on Tuesday 25 Nov 2014 (Local Time) from KBIS Reporting Station
Light Snow Light Snow  
Wind Chill: -13°   Ceiling: 1500
Heat Index: -4°   Visibility: 4mi
Dew Point: -7°   Wind: 26mph
Humidity: 81%   Direction: 30°NNE
Pressure: 29.89"   Gusts: 37mph
Location:  46.81°N, 100.77°W
Report Text: KBIS 260252Z AUTO 03023G32KT 4SM -SN OVC015 M04/M07 A2989 RMK AO2 PK WND 04032/0248 SNB0156 PRESRR SLP146 P0000 60000 I3000 T10441072 53049
Loading
Personal Weather Stations






























Interactive Weather Map New forecast layout! Learn more

10-Day Weather Forecast

Advertisements
Track Severe Weather on mobile